createdAt,value
2019-01-25T00:00:38.625Z,117.73
2019-01-25T00:03:10.281Z,96.78
2019-01-25T00:05:38.434Z,106.72
2019-01-25T00:08:07.448Z,108.60
2019-01-25T00:10:36.482Z,104.38
2019-01-25T00:13:05.489Z,98.75
2019-01-25T00:15:34.516Z,99.60
2019-01-25T00:18:03.542Z,100.72
2019-01-25T00:20:32.572Z,103.62
2019-01-25T00:23:01.587Z,97.42
2019-01-25T00:25:30.656Z,96.80
2019-01-25T00:27:59.666Z,102.92
2019-01-25T00:30:28.674Z,95.12
2019-01-25T00:32:57.655Z,100.65
2019-01-25T00:35:26.720Z,101.97
2019-01-25T00:37:55.803Z,95.28
2019-01-25T00:40:24.804Z,93.23
2019-01-25T00:42:53.814Z,98.52
2019-01-25T00:45:22.864Z,97.53
2019-01-25T00:47:51.850Z,103.30
2019-01-25T00:50:20.981Z,99.87
2019-01-25T00:52:50.036Z,94.65
2019-01-25T00:55:19.197Z,97.88
2019-01-25T00:57:48.208Z,93.15
2019-01-25T01:00:19.801Z,94.17
2019-01-25T01:02:48.845Z,95.35
2019-01-25T01:05:17.949Z,94.37
2019-01-25T01:07:48.715Z,98.90
2019-01-25T01:10:17.726Z,98.90
2019-01-25T01:12:46.754Z,96.55
2019-01-25T01:15:15.768Z,93.80
2019-01-25T01:17:44.850Z,97.85
2019-01-25T01:20:15.822Z,96.37
2019-01-25T01:22:44.830Z,95.17
2019-01-25T01:25:14.368Z,98.20
2019-01-25T01:27:43.425Z,100.05
2019-01-25T01:30:15.795Z,93.30
2019-01-25T01:32:44.825Z,95.25
2019-01-25T01:35:13.834Z,105.03
2019-01-25T01:37:42.879Z,98.50
2019-01-25T01:40:23.019Z,96.50
2019-01-25T01:42:52.152Z,91.08
2019-01-25T01:45:21.283Z,96.72
2019-01-25T01:47:50.277Z,99.07
2019-01-25T01:50:19.412Z,104.90
2019-01-25T01:52:49.338Z,98.87
2019-01-25T01:55:18.322Z,105.20
2019-01-25T01:57:47.324Z,104.17
2019-01-25T02:00:24.529Z,96.13
2019-01-25T02:02:53.523Z,97.15
2019-01-25T02:05:22.604Z,100.77
2019-01-25T02:07:51.586Z,102.90
2019-01-25T02:10:29.436Z,100.17
2019-01-25T02:12:56.302Z,101.82
2019-01-25T02:15:25.578Z,104.23
2019-01-25T02:17:55.110Z,101.47
2019-01-25T02:20:29.575Z,100.58
2019-01-25T02:22:58.562Z,105.87
2019-01-25T02:25:27.566Z,96.92
2019-01-25T02:27:56.602Z,105.90
2019-01-25T02:30:26.573Z,106.93
2019-01-25T02:32:55.560Z,104.85
2019-01-25T02:35:24.593Z,106.43
2019-01-25T02:37:53.570Z,102.67
2019-01-25T02:40:24.492Z,111.27
2019-01-25T02:42:53.661Z,102.45
2019-01-25T02:45:22.815Z,105.00
2019-01-25T02:47:51.806Z,102.47
2019-01-25T02:50:20.821Z,107.03
2019-01-25T02:52:49.810Z,115.25
2019-01-25T02:55:18.857Z,104.83
2019-01-25T02:57:47.847Z,107.72
2019-01-25T03:00:21.649Z,109.10
2019-01-25T03:02:50.634Z,108.67
2019-01-25T03:05:20.147Z,109.25
2019-01-25T03:07:49.457Z,102.82
2019-01-25T03:10:18.742Z,110.83
2019-01-25T03:12:47.779Z,105.52
2019-01-25T03:15:18.781Z,107.50
2019-01-25T03:17:47.923Z,106.43
2019-01-25T03:20:16.947Z,106.47
2019-01-25T03:22:45.978Z,110.80
2019-01-25T03:25:17.719Z,116.87
2019-01-25T03:27:46.752Z,114.00
2019-01-25T03:30:17.572Z,110.33
2019-01-25T03:32:46.673Z,109.97
2019-01-25T03:35:15.896Z,108.30
2019-01-25T03:37:44.917Z,109.10
2019-01-25T03:40:16.773Z,110.77
2019-01-25T03:42:45.832Z,111.80
2019-01-25T03:45:15.092Z,109.13
2019-01-25T03:47:44.208Z,116.03
2019-01-25T03:50:14.927Z,116.17
2019-01-25T03:52:43.969Z,117.17
2019-01-25T03:55:13.541Z,114.37
2019-01-25T03:57:42.569Z,116.82
2019-01-25T04:00:14.686Z,114.65
2019-01-25T04:02:43.754Z,113.25
2019-01-25T04:05:13.484Z,107.90
2019-01-25T04:07:42.536Z,125.45
2019-01-25T04:10:13.247Z,109.60
2019-01-25T04:12:42.311Z,118.05
2019-01-25T04:15:14.273Z,119.05
2019-01-25T04:17:43.335Z,115.62
2019-01-25T04:20:14.100Z,114.10
2019-01-25T04:22:43.156Z,113.77
2019-01-25T04:25:14.462Z,125.90
2019-01-25T04:27:43.478Z,111.00
2019-01-25T04:30:15.829Z,117.87
2019-01-25T04:32:44.880Z,112.77
2019-01-25T04:35:13.955Z,109.57
2019-01-25T04:37:42.996Z,119.02
2019-01-25T04:40:14.069Z,116.30
2019-01-25T04:42:43.120Z,116.37
2019-01-25T04:45:14.016Z,115.82
2019-01-25T04:47:43.047Z,120.28
2019-01-25T04:50:14.962Z,111.83
2019-01-25T04:52:43.976Z,117.50
2019-01-25T04:55:23.990Z,120.90
2019-01-25T04:57:53.136Z,118.45
2019-01-25T05:00:23.019Z,120.57
2019-01-25T05:02:56.985Z,117.00
2019-01-25T05:05:26.082Z,114.53
2019-01-25T05:08:02.953Z,114.45
2019-01-25T05:10:32.316Z,120.82
2019-01-25T05:13:01.359Z,124.10
2019-01-25T05:15:30.608Z,123.85
2019-01-25T05:17:59.640Z,125.42
2019-01-25T05:20:28.758Z,116.28
2019-01-25T05:22:59.003Z,122.92
2019-01-25T05:25:28.492Z,124.47
2019-01-25T05:27:57.609Z,112.77
2019-01-25T05:30:26.764Z,122.72
2019-01-25T05:32:55.837Z,117.40
2019-01-25T05:35:25.045Z,124.87
2019-01-25T05:37:54.184Z,133.75
2019-01-25T05:40:25.094Z,121.80
2019-01-25T05:42:54.188Z,122.92
2019-01-25T05:45:23.280Z,130.67
2019-01-25T05:47:52.367Z,119.55
2019-01-25T05:50:21.438Z,119.07
2019-01-25T05:52:50.501Z,122.33
2019-01-25T05:55:20.903Z,125.60
2019-01-25T05:57:49.972Z,120.92
2019-01-25T06:00:27.650Z,130.23
2019-01-25T06:02:57.502Z,134.37
2019-01-25T06:05:26.530Z,127.05
2019-01-25T06:07:55.675Z,121.28
2019-01-25T06:10:24.790Z,123.13
2019-01-25T06:12:54.708Z,128.00
2019-01-25T06:15:25.482Z,124.17
2019-01-25T06:17:54.526Z,126.47
2019-01-25T06:20:23.537Z,120.37
2019-01-25T06:22:54.177Z,130.93
2019-01-25T06:25:23.237Z,133.37
2019-01-25T06:27:52.237Z,126.12
2019-01-25T06:30:21.277Z,132.87
2019-01-25T06:32:50.300Z,133.30
2019-01-25T06:35:19.342Z,127.43
2019-01-25T06:37:48.389Z,130.78
2019-01-25T06:40:17.514Z,137.60
2019-01-25T06:42:46.534Z,128.32
2019-01-25T06:45:15.595Z,131.37
2019-01-25T06:47:44.626Z,133.85
2019-01-25T06:50:13.771Z,133.67
2019-01-25T06:52:42.863Z,139.43
2019-01-25T06:55:11.908Z,134.63
2019-01-25T06:58:00.552Z,141.15
2019-01-25T07:00:30.126Z,135.72
2019-01-25T07:02:59.147Z,136.07
2019-01-25T07:05:28.190Z,132.12
2019-01-25T07:07:57.217Z,134.93
2019-01-25T07:10:26.271Z,135.72
2019-01-25T07:12:55.272Z,144.60
2019-01-25T07:15:24.766Z,140.83
2019-01-25T07:17:53.824Z,145.10
2019-01-25T07:20:22.916Z,140.87
2019-01-25T07:22:51.979Z,143.25
2019-01-25T07:25:21.126Z,137.97
2019-01-25T07:27:50.127Z,144.30
2019-01-25T07:30:19.172Z,131.18
2019-01-25T07:32:48.184Z,140.90
2019-01-25T07:35:17.223Z,142.20
2019-01-25T07:37:46.267Z,138.37
2019-01-25T07:40:15.334Z,136.12
2019-01-25T07:42:44.605Z,140.10
2019-01-25T07:45:13.621Z,146.37
2019-01-25T07:47:42.694Z,143.00
2019-01-25T07:50:11.678Z,140.20
2019-01-25T07:52:40.710Z,148.43
2019-01-25T07:55:09.770Z,153.93
2019-01-25T07:57:38.845Z,141.62
2019-01-25T08:00:08.474Z,149.97
2019-01-25T08:02:37.565Z,143.37
2019-01-25T08:05:08.056Z,145.54
2019-01-25T08:07:37.213Z,135.45
2019-01-25T08:10:07.588Z,141.10
2019-01-25T08:12:36.815Z,145.15
2019-01-25T08:15:08.231Z,132.03
2019-01-25T08:17:37.370Z,135.50
2019-01-25T08:20:08.492Z,141.76
2019-01-25T08:22:37.671Z,139.55
2019-01-25T08:25:07.786Z,141.66
2019-01-25T08:27:36.965Z,140.97
2019-01-25T08:30:08.234Z,141.75
2019-01-25T08:32:37.455Z,141.18
2019-01-25T08:35:09.190Z,147.06
2019-01-25T08:37:38.454Z,145.95
2019-01-25T08:40:09.309Z,142.55
2019-01-25T08:42:38.364Z,148.40
2019-01-25T08:45:09.390Z,161.43
2019-01-25T08:47:38.463Z,145.57
2019-01-25T08:50:11.732Z,148.78
2019-01-25T08:52:40.717Z,155.10
2019-01-25T08:55:09.806Z,146.28
2019-01-25T08:57:38.853Z,134.65
2019-01-25T09:00:11.828Z,136.85
2019-01-25T09:02:40.893Z,145.62
2019-01-25T09:05:10.780Z,133.95
2019-01-25T09:07:40.149Z,128.18
2019-01-25T09:10:12.211Z,133.15
2019-01-25T09:12:41.250Z,142.28
2019-01-25T09:15:13.171Z,140.95
2019-01-25T09:17:42.352Z,134.53
2019-01-25T09:20:14.718Z,138.05
2019-01-25T09:22:43.754Z,141.75
2019-01-25T09:25:12.829Z,137.83
2019-01-25T09:27:41.868Z,142.13
2019-01-25T09:30:13.770Z,130.27
2019-01-25T09:32:43.793Z,153.30
2019-01-25T09:35:12.999Z,153.40
2019-01-25T09:37:42.081Z,154.78
2019-01-25T09:40:14.116Z,150.57
2019-01-25T09:42:43.143Z,117.45
2019-01-25T09:45:12.226Z,148.80
2019-01-25T09:47:41.324Z,150.55
2019-01-25T09:50:12.714Z,137.60
2019-01-25T09:52:41.760Z,139.68
2019-01-25T09:55:13.877Z,142.00
2019-01-25T09:57:43.044Z,135.20
2019-01-25T10:00:19.426Z,138.28
2019-01-25T10:02:48.513Z,142.53
2019-01-25T10:05:17.653Z,155.50
2019-01-25T10:07:46.737Z,145.20
2019-01-25T10:10:16.076Z,148.37
2019-01-25T10:12:45.162Z,196.28
2019-01-25T10:15:16.917Z,206.85
2019-01-25T10:17:46.007Z,197.82
2019-01-25T10:20:15.173Z,212.48
2019-01-25T10:22:44.200Z,215.80
2019-01-25T10:25:13.266Z,216.30
2019-01-25T10:27:42.316Z,213.57
2019-01-25T10:30:14.158Z,210.85
2019-01-25T10:32:43.230Z,220.70
2019-01-25T10:35:12.386Z,192.27
2019-01-25T10:37:41.431Z,200.10
2019-01-25T10:40:13.323Z,193.57
2019-01-25T10:42:45.540Z,192.13
2019-01-25T10:45:25.810Z,188.37
2019-01-25T10:47:54.907Z,179.70
2019-01-25T10:50:23.964Z,183.70
2019-01-25T10:52:53.015Z,174.55
2019-01-25T10:55:22.057Z,166.73
2019-01-25T10:57:51.165Z,164.30
2019-01-25T11:00:20.242Z,159.05
2019-01-25T11:02:49.268Z,160.50
2019-01-25T11:05:20.579Z,162.27
2019-01-25T11:07:49.614Z,162.57
2019-01-25T11:10:18.684Z,153.80
2019-01-25T11:12:47.737Z,160.30
2019-01-25T11:15:19.000Z,151.77
2019-01-25T11:17:48.578Z,149.62
2019-01-25T11:20:19.763Z,152.77
2019-01-25T11:22:48.834Z,150.27
2019-01-25T11:25:38.608Z,148.63
2019-01-25T11:28:07.632Z,137.50
2019-01-25T11:30:36.690Z,127.02
2019-01-25T11:33:05.818Z,109.67
2019-01-25T11:35:34.905Z,103.12
2019-01-25T11:38:03.983Z,81.05
2019-01-25T11:40:35.745Z,90.30
2019-01-25T11:43:08.958Z,90.72
2019-01-25T11:45:35.826Z,89.70
2019-01-25T11:48:06.724Z,83.33
2019-01-25T11:50:35.790Z,69.17
2019-01-25T11:53:04.875Z,66.72
2019-01-25T11:55:33.949Z,72.30
2019-01-25T11:58:03.006Z,68.60
2019-01-25T12:00:32.749Z,65.78
2019-01-25T12:03:01.811Z,64.32
2019-01-25T12:05:30.909Z,59.33
2019-01-25T12:07:59.961Z,55.65
2019-01-25T12:10:30.148Z,53.68
2019-01-25T12:12:59.178Z,53.95
2019-01-25T12:15:28.244Z,52.43
2019-01-25T12:17:57.284Z,49.45
2019-01-25T12:20:28.436Z,52.78
2019-01-25T12:22:57.534Z,56.20
2019-01-25T12:25:26.622Z,52.43
2019-01-25T12:27:55.674Z,53.23
2019-01-25T12:30:29.542Z,53.87
2019-01-25T12:32:58.656Z,58.95
2019-01-25T12:35:28.849Z,50.38
2019-01-25T12:37:57.947Z,54.95
2019-01-25T12:40:27.009Z,54.20
2019-01-25T12:42:56.146Z,54.25
2019-01-25T12:45:26.466Z,53.85
2019-01-25T12:47:55.542Z,53.08
2019-01-25T12:50:27.653Z,53.70
2019-01-25T12:52:56.714Z,56.25
2019-01-25T12:55:25.819Z,52.97
2019-01-25T12:57:54.894Z,55.95
2019-01-25T13:00:24.356Z,54.13
2019-01-25T13:02:53.655Z,54.63
2019-01-25T13:05:23.557Z,49.87
2019-01-25T13:07:52.750Z,53.15
2019-01-25T13:10:22.236Z,52.77
2019-01-25T13:12:51.392Z,51.08
2019-01-25T13:15:20.512Z,53.13
2019-01-25T13:17:49.879Z,53.78
2019-01-25T13:20:21.271Z,51.47
2019-01-25T13:22:50.364Z,51.50
2019-01-25T13:25:19.485Z,51.03
2019-01-25T13:27:48.631Z,49.40
2019-01-25T13:30:20.132Z,51.37
2019-01-25T13:32:52.055Z,50.73
2019-01-25T13:35:21.273Z,50.88
2019-01-25T13:37:50.495Z,51.65
2019-01-25T13:40:20.948Z,47.67
2019-01-25T13:42:51.216Z,51.70
2019-01-25T13:46:07.968Z,50.08
2019-01-25T13:48:40.597Z,47.03
2019-01-25T13:51:23.190Z,54.75
2019-01-25T13:53:51.503Z,51.85
2019-01-25T13:56:23.599Z,50.20
2019-01-25T13:59:09.123Z,46.65
2019-01-25T14:01:48.715Z,47.43
2019-01-25T14:04:17.863Z,56.30
2019-01-25T14:06:46.904Z,54.08
2019-01-25T14:09:16.909Z,44.63
2019-01-25T14:11:46.162Z,42.05
2019-01-25T14:14:15.290Z,41.80
2019-01-25T14:16:44.381Z,43.20
2019-01-25T14:19:13.469Z,44.03
2019-01-25T14:21:42.673Z,44.35
2019-01-25T14:24:16.466Z,41.65
2019-01-25T14:26:42.628Z,39.03
2019-01-25T14:29:11.787Z,41.08
2019-01-25T14:31:40.869Z,40.88
2019-01-25T14:34:09.912Z,39.27
2019-01-25T14:36:39.032Z,41.05
2019-01-25T14:39:09.126Z,37.17
2019-01-25T14:41:38.246Z,41.92
2019-01-25T14:44:07.341Z,43.40
2019-01-25T14:46:36.570Z,42.70
2019-01-25T14:49:05.656Z,44.77
2019-01-25T14:51:34.785Z,37.93
2019-01-25T14:54:03.916Z,38.98
2019-01-25T14:56:33.046Z,39.35
2019-01-25T14:59:02.134Z,40.45
2019-01-25T15:01:31.235Z,37.83
2019-01-25T15:04:00.469Z,38.75
2019-01-25T15:06:29.488Z,39.20
2019-01-25T15:08:58.596Z,35.48
2019-01-25T15:11:27.846Z,44.25
2019-01-25T15:14:02.240Z,48.63
2019-01-25T15:16:27.738Z,38.48
2019-01-25T15:18:56.801Z,40.20
2019-01-25T15:21:25.860Z,36.08
2019-01-25T15:23:55.033Z,35.85
2019-01-25T15:26:24.068Z,37.35
2019-01-25T15:28:53.166Z,36.35
2019-01-25T15:31:22.273Z,41.30
2019-01-25T15:33:51.441Z,38.45
2019-01-25T15:36:20.536Z,43.80
2019-01-25T15:38:49.683Z,42.50
2019-01-25T15:41:18.765Z,40.58
2019-01-25T15:43:48.101Z,42.33
2019-01-25T15:46:17.275Z,41.77
2019-01-25T15:48:46.459Z,45.45
2019-01-25T15:51:15.738Z,44.08
2019-01-25T15:53:44.892Z,49.33
2019-01-25T15:56:13.980Z,47.65
2019-01-25T15:58:54.344Z,52.43
2019-01-25T16:01:23.445Z,52.73
2019-01-25T16:03:52.583Z,56.63
2019-01-25T16:06:21.786Z,63.58
2019-01-25T16:08:50.881Z,57.83
2019-01-25T16:12:17.791Z,66.92
2019-01-25T16:15:33.370Z,66.57
2019-01-25T16:18:02.509Z,62.20
2019-01-25T16:24:27.892Z,70.97
2019-01-25T16:26:57.094Z,66.02
2019-01-25T16:29:26.315Z,61.00
2019-01-25T16:31:55.554Z,60.85
2019-01-25T16:34:24.886Z,75.72
2019-01-25T16:36:54.022Z,80.22
2019-01-25T16:40:05.530Z,66.92
2019-01-25T16:42:46.243Z,76.42
2019-01-25T16:45:35.829Z,83.22
2019-01-25T16:48:05.232Z,98.40
2019-01-25T16:50:34.675Z,83.03
2019-01-25T16:53:03.858Z,73.55
2019-01-25T16:55:37.276Z,77.75
2019-01-25T16:58:06.795Z,80.62
2019-01-25T17:00:39.018Z,79.05
2019-01-25T17:03:08.249Z,86.25
2019-01-25T17:05:37.500Z,74.22
2019-01-25T17:08:06.840Z,75.57
2019-01-25T17:10:36.260Z,70.50
2019-01-25T17:13:05.814Z,85.85
2019-01-25T17:15:35.114Z,74.80
2019-01-25T17:18:04.330Z,72.47
2019-01-25T17:20:33.520Z,70.50
2019-01-25T17:23:02.810Z,81.30
2019-01-25T17:25:31.993Z,80.05
2019-01-25T17:28:01.158Z,74.75
2019-01-25T17:30:32.524Z,69.90
2019-01-25T17:33:02.326Z,72.45
2019-01-25T17:35:31.980Z,79.75
2019-01-25T17:38:01.341Z,76.22
2019-01-25T17:40:32.429Z,69.72
2019-01-25T17:46:36.525Z,74.37
2019-01-25T17:49:05.673Z,73.40
2019-01-25T17:51:34.800Z,80.50
2019-01-25T17:54:28.224Z,74.07
2019-01-25T17:59:26.599Z,73.87
2019-01-25T18:01:55.712Z,68.97
2019-01-25T18:04:25.031Z,76.53
2019-01-25T18:06:54.228Z,65.65
2019-01-25T18:09:23.442Z,54.35
2019-01-25T18:11:52.832Z,59.95
2019-01-25T18:14:25.612Z,62.27
2019-01-25T18:16:54.726Z,49.80
2019-01-25T18:19:23.911Z,58.58
2019-01-25T18:21:53.085Z,55.88
2019-01-25T18:24:22.329Z,58.60
2019-01-25T18:26:51.499Z,63.75
2019-01-25T18:29:31.759Z,56.02
2019-01-25T18:32:00.881Z,59.85
2019-01-25T18:34:30.013Z,55.28
2019-01-25T18:36:59.608Z,63.63
2019-01-25T18:39:28.683Z,54.58
2019-01-25T18:41:57.918Z,55.08
2019-01-25T18:44:27.665Z,53.15
2019-01-25T18:46:56.766Z,61.35
2019-01-25T18:49:25.908Z,58.55
2019-01-25T18:51:55.108Z,62.10
2019-01-25T18:54:24.222Z,60.43
2019-01-25T18:56:56.144Z,52.17
2019-01-25T18:59:25.265Z,39.70
2019-01-25T19:01:54.587Z,50.60
2019-01-25T19:04:23.697Z,51.42
2019-01-25T19:06:53.128Z,56.18
2019-01-25T19:09:22.361Z,51.35
2019-01-25T19:11:51.850Z,53.42
2019-01-25T19:14:21.227Z,50.85
2019-01-25T19:16:50.480Z,51.83
2019-01-25T19:19:19.748Z,50.50
2019-01-25T19:21:49.042Z,48.55
2019-01-25T19:24:18.561Z,48.05
2019-01-25T19:26:47.887Z,52.48
2019-01-25T19:29:17.293Z,52.05
2019-01-25T19:31:49.067Z,52.23
2019-01-25T19:34:18.387Z,51.13
2019-01-25T19:36:47.959Z,56.02
2019-01-25T19:39:17.313Z,51.45
2019-01-25T19:41:47.744Z,48.30
2019-01-25T19:44:19.406Z,45.10
2019-01-25T19:46:49.270Z,54.00
2019-01-25T19:49:19.880Z,46.33
2019-01-25T19:51:54.287Z,49.75
2019-01-25T19:54:23.650Z,45.00
2019-01-25T19:56:52.922Z,46.25
2019-01-25T19:59:22.038Z,46.02
2019-01-25T20:01:51.338Z,42.43
2019-01-25T20:04:20.534Z,42.95
2019-01-25T20:06:52.727Z,51.25
2019-01-25T20:09:21.892Z,47.80
2019-01-25T20:11:52.923Z,46.77
2019-01-25T20:14:22.131Z,46.30
2019-01-25T20:16:54.434Z,45.28
2019-01-25T20:19:24.664Z,48.65
2019-01-25T20:21:53.879Z,64.22
2019-01-25T20:24:23.872Z,51.85
2019-01-25T20:26:53.043Z,45.70
2019-01-25T20:29:22.269Z,49.20
2019-01-25T20:31:51.472Z,51.68
2019-01-25T20:34:20.660Z,45.15
2019-01-25T20:36:49.851Z,43.83
2019-01-25T20:39:19.180Z,46.50
2019-01-25T20:41:48.430Z,46.28
2019-01-25T20:44:17.728Z,45.98
2019-01-25T20:46:46.861Z,43.85
2019-01-25T20:49:16.032Z,43.92
2019-01-25T20:51:45.229Z,44.65
2019-01-25T20:54:14.378Z,48.13
2019-01-25T20:56:43.577Z,44.08
2019-01-25T21:00:13.233Z,48.65
2019-01-25T21:02:51.865Z,41.60
2019-01-25T21:05:21.264Z,48.87
2019-01-25T21:07:50.383Z,40.80
2019-01-25T21:10:28.730Z,44.50
2019-01-25T21:13:00.800Z,40.75
2019-01-25T21:15:35.150Z,42.93
2019-01-25T21:18:10.292Z,42.83
2019-01-25T21:21:10.953Z,38.10
2019-01-25T21:24:30.545Z,39.45
2019-01-25T21:27:01.566Z,41.42
2019-01-25T21:29:30.623Z,44.18
2019-01-25T21:31:59.865Z,39.00
2019-01-25T21:34:29.054Z,40.38
2019-01-25T21:37:00.130Z,41.92
2019-01-25T21:39:29.348Z,40.10
2019-01-25T21:41:59.761Z,43.45
2019-01-25T21:44:28.861Z,42.15
2019-01-25T21:46:58.571Z,40.15
2019-01-25T21:49:27.743Z,40.48
2019-01-25T21:51:56.938Z,38.58
2019-01-25T21:54:26.163Z,39.63
2019-01-25T21:56:57.289Z,38.20
2019-01-25T21:59:26.471Z,37.08
2019-01-25T22:01:55.715Z,38.40
2019-01-25T22:04:25.851Z,41.73
2019-01-25T22:06:55.226Z,37.80
2019-01-25T22:09:24.419Z,38.80
2019-01-25T22:11:53.572Z,39.80
2019-01-25T22:14:22.760Z,40.33
2019-01-25T22:16:51.926Z,38.65
2019-01-25T22:19:22.223Z,39.23
2019-01-25T22:21:54.505Z,34.70
2019-01-25T22:27:47.918Z,37.33
2019-01-25T22:30:19.402Z,38.83
2019-01-25T22:32:49.684Z,41.40
2019-01-25T22:35:18.980Z,38.63
2019-01-25T22:38:07.217Z,40.30
2019-01-25T22:40:36.432Z,38.90
2019-01-25T22:43:05.602Z,41.90
2019-01-25T22:45:34.834Z,41.23
2019-01-25T22:48:04.873Z,42.83
2019-01-25T22:50:36.333Z,43.08
2019-01-25T22:53:05.636Z,43.75
2019-01-25T22:55:34.839Z,42.70
2019-01-25T22:58:04.014Z,48.95
2019-01-25T23:01:04.238Z,47.75
2019-01-25T23:04:00.327Z,52.53
2019-01-25T23:06:42.088Z,46.10
2019-01-25T23:09:27.162Z,49.42
2019-01-25T23:11:56.356Z,51.23
2019-01-25T23:14:25.641Z,49.50
2019-01-25T23:16:54.788Z,52.95
2019-01-25T23:19:24.024Z,53.45
2019-01-25T23:21:53.291Z,54.05
2019-01-25T23:24:22.375Z,56.18
2019-01-25T23:26:51.527Z,60.58
2019-01-25T23:29:20.671Z,58.68
2019-01-25T23:31:51.859Z,59.98
2019-01-25T23:34:21.002Z,58.23
2019-01-25T23:36:50.155Z,63.58
2019-01-25T23:39:19.329Z,62.93
2019-01-25T23:42:46.978Z,67.78
2019-01-25T23:45:55.157Z,69.60
2019-01-25T23:48:24.298Z,70.12
2019-01-25T23:51:01.330Z,76.95
2019-01-25T23:53:30.484Z,70.08
2019-01-25T23:55:59.643Z,76.65
2019-01-25T23:58:28.798Z,77.62
